createdAt,value
2018-12-16T00:00:05.602Z,42.10
2018-12-16T00:00:38.487Z,42.10
2018-12-16T00:01:11.595Z,42.10
2018-12-16T00:01:44.551Z,42.10
2018-12-16T00:02:17.341Z,42.10
2018-12-16T00:02:50.051Z,42.10
2018-12-16T00:03:22.721Z,42.10
2018-12-16T00:03:55.831Z,42.10
2018-12-16T00:04:28.870Z,42.00
2018-12-16T00:05:01.715Z,42.10
2018-12-16T00:05:34.748Z,42.10
2018-12-16T00:06:08.034Z,42.10
2018-12-16T00:06:40.730Z,42.10
2018-12-16T00:07:13.792Z,42.10
2018-12-16T00:07:46.506Z,42.10
2018-12-16T00:08:19.837Z,42.10
2018-12-16T00:08:52.815Z,42.10
2018-12-16T00:09:25.587Z,42.10
2018-12-16T00:09:58.755Z,42.10
2018-12-16T00:10:32.144Z,42.10
2018-12-16T00:11:05.033Z,42.10
2018-12-16T00:11:38.144Z,42.10
2018-12-16T00:12:11.083Z,42.20
2018-12-16T00:12:43.664Z,42.20
2018-12-16T00:13:16.416Z,42.80
2018-12-16T00:13:49.083Z,42.20
2018-12-16T00:14:22.301Z,42.20
2018-12-16T00:14:54.926Z,42.20
2018-12-16T00:15:27.374Z,42.20
2018-12-16T00:16:00.265Z,42.10
2018-12-16T00:16:33.244Z,42.20
2018-12-16T00:17:06.271Z,42.10
2018-12-16T00:17:39.232Z,42.10
2018-12-16T00:18:12.210Z,42.10
2018-12-16T00:18:44.939Z,42.20
2018-12-16T00:19:17.929Z,42.10
2018-12-16T00:19:51.276Z,42.20
2018-12-16T00:20:24.009Z,42.20
2018-12-16T00:20:57.198Z,42.20
2018-12-16T00:21:30.115Z,42.10
2018-12-16T00:22:03.047Z,42.20
2018-12-16T00:22:35.713Z,42.20
2018-12-16T00:23:08.673Z,42.20
2018-12-16T00:23:41.857Z,42.20
2018-12-16T00:24:14.673Z,42.20
2018-12-16T00:24:47.579Z,42.20
2018-12-16T00:25:20.588Z,42.20
2018-12-16T00:25:53.459Z,42.10
2018-12-16T00:26:26.265Z,42.10
2018-12-16T00:26:58.970Z,42.10
2018-12-16T00:27:31.927Z,42.10
2018-12-16T00:28:04.714Z,42.20
2018-12-16T00:28:37.416Z,42.20
2018-12-16T00:29:10.848Z,42.20
2018-12-16T00:29:43.736Z,42.20
2018-12-16T00:30:16.523Z,42.20
2018-12-16T00:30:49.408Z,42.20
2018-12-16T00:31:22.538Z,42.20
2018-12-16T00:31:55.456Z,42.10
2018-12-16T00:32:28.297Z,42.20
2018-12-16T00:33:01.448Z,42.20
2018-12-16T00:33:34.288Z,42.20
2018-12-16T00:34:07.248Z,42.20
2018-12-16T00:34:40.103Z,42.20
2018-12-16T00:35:13.329Z,42.20
2018-12-16T00:35:46.839Z,42.20
2018-12-16T00:36:19.620Z,42.20
2018-12-16T00:36:52.434Z,42.20
2018-12-16T00:37:25.451Z,42.20
2018-12-16T00:37:58.802Z,42.20
2018-12-16T00:38:31.531Z,42.20
2018-12-16T00:39:04.502Z,42.20
2018-12-16T00:39:37.313Z,42.20
2018-12-16T00:40:10.321Z,42.20
2018-12-16T00:40:43.120Z,42.20
2018-12-16T00:41:16.042Z,42.20
2018-12-16T00:41:49.703Z,42.20
2018-12-16T00:42:22.769Z,42.20
2018-12-16T00:42:55.881Z,42.20
2018-12-16T00:43:28.701Z,42.20
2018-12-16T00:44:01.961Z,42.20
2018-12-16T00:44:35.162Z,42.30
2018-12-16T00:45:08.759Z,42.20
2018-12-16T00:45:41.862Z,42.80
2018-12-16T00:46:14.812Z,42.20
2018-12-16T00:46:47.435Z,42.20
2018-12-16T00:47:20.064Z,42.20
2018-12-16T00:47:52.791Z,42.20
2018-12-16T00:48:25.622Z,42.20
2018-12-16T00:48:58.535Z,42.20
2018-12-16T00:49:31.286Z,42.20
2018-12-16T00:50:04.266Z,42.20
2018-12-16T00:50:37.496Z,42.20
2018-12-16T00:51:10.451Z,42.20
2018-12-16T00:51:43.241Z,42.20
2018-12-16T00:52:16.243Z,42.20
2018-12-16T00:52:49.060Z,42.20
2018-12-16T00:53:22.211Z,42.20
2018-12-16T00:53:55.073Z,42.20
2018-12-16T00:54:28.140Z,42.20
2018-12-16T00:55:00.923Z,42.20
2018-12-16T00:55:34.598Z,42.20
2018-12-16T00:56:07.444Z,42.20
2018-12-16T00:56:40.235Z,42.20
2018-12-16T00:57:13.743Z,42.20
2018-12-16T00:57:46.752Z,42.20
2018-12-16T00:58:19.787Z,42.20
2018-12-16T00:58:52.736Z,42.20
2018-12-16T00:59:25.827Z,42.20
2018-12-16T00:59:58.722Z,42.80
2018-12-16T01:00:31.518Z,42.20
2018-12-16T01:01:04.286Z,42.20
2018-12-16T01:01:37.370Z,42.20
2018-12-16T01:02:10.734Z,42.20
2018-12-16T01:02:43.526Z,42.20
2018-12-16T01:03:16.231Z,42.20
2018-12-16T01:03:49.143Z,42.30
2018-12-16T01:04:22.474Z,42.20
2018-12-16T01:04:55.013Z,42.20
2018-12-16T01:05:27.876Z,42.20
2018-12-16T01:06:01.318Z,42.30
2018-12-16T01:06:34.233Z,42.30
2018-12-16T01:07:07.050Z,42.30
2018-12-16T01:07:40.196Z,42.30
2018-12-16T01:08:13.142Z,42.30
2018-12-16T01:08:46.927Z,42.30
2018-12-16T01:09:19.899Z,42.30
2018-12-16T01:09:53.107Z,42.90
2018-12-16T01:10:26.151Z,42.30
2018-12-16T01:10:59.522Z,42.30
2018-12-16T01:11:32.325Z,42.30
2018-12-16T01:12:05.168Z,42.30
2018-12-16T01:12:38.353Z,42.30
2018-12-16T01:13:11.498Z,42.30
2018-12-16T01:13:44.771Z,42.30
2018-12-16T01:14:18.356Z,42.30
2018-12-16T01:14:51.288Z,42.30
2018-12-16T01:15:24.062Z,42.30
2018-12-16T01:15:56.914Z,42.30
2018-12-16T01:16:29.887Z,42.30
2018-12-16T01:17:02.695Z,42.30
2018-12-16T01:17:37.527Z,42.30
2018-12-16T01:18:10.233Z,42.30
2018-12-16T01:18:44.215Z,42.90
2018-12-16T01:19:16.793Z,42.30
2018-12-16T01:19:49.794Z,42.30
2018-12-16T01:20:22.873Z,42.30
2018-12-16T01:20:55.954Z,42.30
2018-12-16T01:21:28.924Z,42.30
2018-12-16T01:22:02.017Z,42.30
2018-12-16T01:22:34.672Z,42.30
2018-12-16T01:23:07.323Z,42.30
2018-12-16T01:23:39.956Z,42.30
2018-12-16T01:24:13.195Z,42.30
2018-12-16T01:24:46.306Z,42.30
2018-12-16T01:25:19.363Z,42.30
2018-12-16T01:25:52.288Z,42.30
2018-12-16T01:26:25.863Z,42.30
2018-12-16T01:26:58.716Z,42.30
2018-12-16T01:27:32.102Z,42.30
2018-12-16T01:28:05.047Z,42.30
2018-12-16T01:28:37.807Z,42.30
2018-12-16T01:29:10.917Z,42.30
2018-12-16T01:29:43.936Z,42.30
2018-12-16T01:30:16.883Z,42.30
2018-12-16T01:30:49.773Z,42.30
2018-12-16T01:31:23.067Z,42.30
2018-12-16T01:31:56.051Z,42.30
2018-12-16T01:32:28.961Z,42.30
2018-12-16T01:33:02.084Z,42.30
2018-12-16T01:33:35.075Z,42.30
2018-12-16T01:34:07.946Z,42.30
2018-12-16T01:34:42.173Z,42.30
2018-12-16T01:35:15.073Z,42.30
2018-12-16T01:35:48.058Z,42.30
2018-12-16T01:36:20.758Z,42.30
2018-12-16T01:36:53.954Z,42.30
2018-12-16T01:37:26.609Z,42.30
2018-12-16T01:37:59.381Z,42.30
2018-12-16T01:38:31.939Z,42.30
2018-12-16T01:39:05.140Z,42.30
2018-12-16T01:39:38.192Z,42.30
2018-12-16T01:40:10.818Z,42.30
2018-12-16T01:40:44.375Z,42.30
2018-12-16T01:41:17.180Z,42.30
2018-12-16T01:41:49.970Z,42.30
2018-12-16T01:42:22.545Z,42.30
2018-12-16T01:42:55.923Z,42.30
2018-12-16T01:43:28.901Z,42.30
2018-12-16T01:44:01.938Z,42.30
2018-12-16T01:44:34.905Z,42.30
2018-12-16T01:45:07.647Z,42.30
2018-12-16T01:45:40.535Z,42.30
2018-12-16T01:46:13.540Z,42.40
2018-12-16T01:46:46.471Z,42.30
2018-12-16T01:47:19.421Z,42.30
2018-12-16T01:47:52.070Z,42.30
2018-12-16T01:48:24.864Z,42.40
2018-12-16T01:48:57.943Z,42.40
2018-12-16T01:49:31.013Z,42.30
2018-12-16T01:50:04.003Z,42.40
2018-12-16T01:50:36.954Z,42.40
2018-12-16T01:51:10.445Z,42.30
2018-12-16T01:51:43.323Z,42.40
2018-12-16T01:52:16.072Z,42.40
2018-12-16T01:52:50.329Z,42.40
2018-12-16T01:53:23.780Z,42.40
2018-12-16T01:53:56.636Z,42.40
2018-12-16T01:54:29.403Z,42.40
2018-12-16T01:55:02.408Z,42.40
2018-12-16T01:55:35.546Z,42.30
2018-12-16T01:56:08.606Z,42.40
2018-12-16T01:56:41.360Z,42.40
2018-12-16T01:57:14.407Z,42.30
2018-12-16T01:57:47.289Z,42.40
2018-12-16T01:58:20.214Z,42.40
2018-12-16T01:58:53.045Z,42.40
2018-12-16T01:59:26.327Z,42.40
2018-12-16T01:59:59.343Z,42.40
2018-12-16T02:00:32.229Z,42.40
2018-12-16T02:01:05.059Z,42.40
2018-12-16T02:01:38.101Z,43.00
2018-12-16T02:02:12.031Z,42.40
2018-12-16T02:02:44.732Z,42.50
2018-12-16T02:03:17.465Z,42.40
2018-12-16T02:03:50.604Z,42.40
2018-12-16T02:04:23.424Z,42.40
2018-12-16T02:04:56.314Z,42.60
2018-12-16T02:05:29.275Z,42.40
2018-12-16T02:06:02.464Z,42.40
2018-12-16T02:06:35.634Z,42.40
2018-12-16T02:07:08.189Z,42.40
2018-12-16T02:07:41.252Z,42.30
2018-12-16T02:08:14.241Z,42.30
2018-12-16T02:08:47.216Z,42.40
2018-12-16T02:09:19.883Z,42.40
2018-12-16T02:09:53.054Z,42.40
2018-12-16T02:10:25.705Z,42.40
2018-12-16T02:10:58.569Z,42.40
2018-12-16T02:11:31.371Z,42.40
2018-12-16T02:12:04.510Z,42.40
2018-12-16T02:12:37.453Z,42.50
2018-12-16T02:13:10.484Z,42.50
2018-12-16T02:13:43.490Z,42.50
2018-12-16T02:14:16.574Z,42.50
2018-12-16T02:14:49.610Z,42.50
2018-12-16T02:15:22.290Z,42.50
2018-12-16T02:15:54.873Z,42.40
2018-12-16T02:16:27.695Z,42.40
2018-12-16T02:17:00.570Z,42.50
2018-12-16T02:17:33.536Z,42.50
2018-12-16T02:18:06.531Z,42.50
2018-12-16T02:18:39.339Z,42.50
2018-12-16T02:19:12.432Z,42.50
2018-12-16T02:19:45.271Z,42.50
2018-12-16T02:20:18.285Z,42.40
2018-12-16T02:20:51.021Z,42.50
2018-12-16T02:21:24.496Z,42.50
2018-12-16T02:21:57.358Z,42.50
2018-12-16T02:22:29.976Z,42.50
2018-12-16T02:23:02.720Z,42.50
2018-12-16T02:23:35.787Z,42.50
2018-12-16T02:24:08.924Z,42.50
2018-12-16T02:24:41.945Z,42.50
2018-12-16T02:25:15.058Z,42.60
2018-12-16T02:25:47.919Z,42.60
2018-12-16T02:26:20.866Z,42.60
2018-12-16T02:26:53.951Z,42.50
2018-12-16T02:27:27.075Z,42.50
2018-12-16T02:27:59.924Z,42.60
2018-12-16T02:28:32.913Z,42.50
2018-12-16T02:29:05.804Z,42.50
2018-12-16T02:29:38.624Z,42.50
2018-12-16T02:30:11.779Z,42.50
2018-12-16T02:30:44.610Z,42.50
2018-12-16T02:31:17.799Z,42.60
2018-12-16T02:31:50.793Z,42.50
2018-12-16T02:32:23.582Z,42.50
2018-12-16T02:32:56.280Z,42.60
2018-12-16T02:33:29.105Z,42.60
2018-12-16T02:34:02.182Z,42.60
2018-12-16T02:34:34.944Z,42.50
2018-12-16T02:35:07.676Z,42.50
2018-12-16T02:35:40.682Z,42.50
2018-12-16T02:36:13.580Z,42.60
2018-12-16T02:36:47.102Z,42.60
2018-12-16T02:37:19.912Z,42.50
2018-12-16T02:37:52.880Z,42.50
2018-12-16T02:38:25.928Z,42.60
2018-12-16T02:38:59.459Z,42.60
2018-12-16T02:39:32.356Z,42.60
2018-12-16T02:40:05.105Z,42.60
2018-12-16T02:40:37.803Z,42.60
2018-12-16T02:41:10.380Z,42.60
2018-12-16T02:41:43.408Z,42.50
2018-12-16T02:42:16.222Z,42.60
2018-12-16T02:42:49.000Z,42.60
2018-12-16T02:43:21.971Z,42.60
2018-12-16T02:43:54.837Z,42.60
2018-12-16T02:44:27.670Z,42.60
2018-12-16T02:45:00.803Z,42.60
2018-12-16T02:45:33.829Z,42.60
2018-12-16T02:46:06.978Z,43.20
2018-12-16T02:46:40.736Z,42.60
2018-12-16T02:47:13.659Z,42.60
2018-12-16T02:47:46.454Z,42.60
2018-12-16T02:48:19.413Z,42.60
2018-12-16T02:48:53.148Z,42.60
2018-12-16T02:49:25.883Z,42.60
2018-12-16T02:49:58.617Z,42.60
2018-12-16T02:50:31.837Z,43.20
2018-12-16T02:51:04.472Z,42.60
2018-12-16T02:51:37.825Z,42.60
2018-12-16T02:52:10.824Z,42.60
2018-12-16T02:52:43.647Z,42.60
2018-12-16T02:53:16.815Z,42.60
2018-12-16T02:53:49.922Z,42.60
2018-12-16T02:54:22.638Z,42.60
2018-12-16T02:54:55.838Z,42.60
2018-12-16T02:55:28.835Z,42.60
2018-12-16T02:56:01.383Z,42.60
2018-12-16T02:56:34.339Z,42.60
2018-12-16T02:57:07.172Z,42.60
2018-12-16T02:57:40.257Z,42.60
2018-12-16T02:58:12.736Z,42.60
2018-12-16T02:58:45.438Z,42.60
2018-12-16T02:59:18.488Z,42.60
2018-12-16T02:59:51.495Z,42.60
2018-12-16T03:00:24.288Z,42.60
2018-12-16T03:00:57.203Z,42.70
2018-12-16T03:01:30.180Z,42.70
2018-12-16T03:02:02.779Z,42.60
2018-12-16T03:02:35.728Z,42.60
2018-12-16T03:03:08.643Z,42.70
2018-12-16T03:03:41.381Z,42.70
2018-12-16T03:04:14.433Z,42.70
2018-12-16T03:04:47.680Z,42.70
2018-12-16T03:05:21.271Z,42.70
2018-12-16T03:05:54.401Z,42.70
2018-12-16T03:06:27.169Z,42.70
2018-12-16T03:06:59.890Z,42.70
2018-12-16T03:07:32.833Z,42.70
2018-12-16T03:08:05.932Z,42.70
2018-12-16T03:08:38.802Z,42.70
2018-12-16T03:09:11.450Z,42.70
2018-12-16T03:09:44.309Z,42.60
2018-12-16T03:10:17.176Z,42.70
2018-12-16T03:10:50.247Z,42.70
2018-12-16T03:11:22.835Z,42.70
2018-12-16T03:11:55.908Z,42.60
2018-12-16T03:12:29.200Z,42.70
2018-12-16T03:13:01.981Z,42.70
2018-12-16T03:13:34.704Z,42.70
2018-12-16T03:14:07.824Z,42.70
2018-12-16T03:14:40.625Z,42.70
2018-12-16T03:15:13.633Z,42.70
2018-12-16T03:15:46.572Z,42.70
2018-12-16T03:16:19.483Z,42.70
2018-12-16T03:16:52.590Z,42.60
2018-12-16T03:17:25.408Z,42.70
2018-12-16T03:17:58.092Z,42.70
2018-12-16T03:18:30.934Z,42.70
2018-12-16T03:19:04.222Z,42.70
2018-12-16T03:19:37.290Z,42.70
2018-12-16T03:20:10.389Z,42.70
2018-12-16T03:20:43.320Z,42.70
2018-12-16T03:21:16.199Z,42.70
2018-12-16T03:21:49.134Z,42.70
2018-12-16T03:22:21.730Z,42.60
2018-12-16T03:22:54.657Z,42.70
2018-12-16T03:23:27.708Z,42.70
2018-12-16T03:24:00.819Z,42.70
2018-12-16T03:24:33.686Z,42.70
2018-12-16T03:25:06.777Z,42.70
2018-12-16T03:25:39.826Z,42.70
2018-12-16T03:26:12.695Z,42.70
2018-12-16T03:26:45.718Z,42.70
2018-12-16T03:27:18.582Z,42.70
2018-12-16T03:27:51.785Z,42.70
2018-12-16T03:28:24.814Z,42.70
2018-12-16T03:28:57.789Z,42.70
2018-12-16T03:29:30.902Z,42.70
2018-12-16T03:30:04.064Z,42.70
2018-12-16T03:30:37.038Z,42.70
2018-12-16T03:31:09.976Z,42.70
2018-12-16T03:31:42.943Z,42.70
2018-12-16T03:32:15.832Z,42.70
2018-12-16T03:32:48.716Z,42.70
2018-12-16T03:33:21.561Z,42.70
2018-12-16T03:33:54.417Z,42.70
2018-12-16T03:34:27.315Z,42.70
2018-12-16T03:35:00.040Z,42.70
2018-12-16T03:35:32.831Z,42.70
2018-12-16T03:36:05.687Z,42.70
2018-12-16T03:36:38.435Z,42.70
2018-12-16T03:37:11.213Z,42.70
2018-12-16T03:37:44.231Z,42.70
2018-12-16T03:38:17.204Z,42.70
2018-12-16T03:38:50.089Z,42.70
2018-12-16T03:39:23.243Z,42.70
2018-12-16T03:39:55.941Z,42.70
2018-12-16T03:40:28.872Z,42.70
2018-12-16T03:41:01.816Z,42.70
2018-12-16T03:41:34.507Z,42.70
2018-12-16T03:42:07.679Z,42.80
2018-12-16T03:42:40.233Z,42.80
2018-12-16T03:43:13.020Z,42.70
2018-12-16T03:43:45.707Z,42.70
2018-12-16T03:44:18.803Z,42.70
2018-12-16T03:44:51.835Z,42.70
2018-12-16T03:45:24.674Z,42.70
2018-12-16T03:45:58.069Z,42.70
2018-12-16T03:46:30.647Z,42.70
2018-12-16T03:47:03.927Z,42.70
2018-12-16T03:47:36.816Z,42.70
2018-12-16T03:48:09.702Z,42.70
2018-12-16T03:48:42.623Z,42.70
2018-12-16T03:49:15.463Z,42.70
2018-12-16T03:49:48.538Z,42.70
2018-12-16T03:50:21.513Z,42.70
2018-12-16T03:50:54.352Z,42.70
2018-12-16T03:51:27.677Z,42.70
2018-12-16T03:52:00.736Z,42.70
2018-12-16T03:52:33.236Z,42.70
2018-12-16T03:53:06.149Z,42.70
2018-12-16T03:53:39.109Z,42.80
2018-12-16T03:54:11.772Z,42.70
2018-12-16T03:54:44.637Z,43.40
2018-12-16T03:55:17.495Z,42.80
2018-12-16T03:55:50.638Z,42.80
2018-12-16T03:56:23.447Z,42.80
2018-12-16T03:56:56.278Z,42.80
2018-12-16T03:57:29.238Z,42.80
2018-12-16T03:58:02.210Z,42.80
2018-12-16T03:58:35.221Z,42.80
2018-12-16T03:59:08.106Z,42.80
2018-12-16T03:59:41.265Z,42.70
2018-12-16T04:00:14.150Z,42.80
2018-12-16T04:00:47.222Z,42.70
2018-12-16T04:01:20.368Z,42.80
2018-12-16T04:01:53.200Z,42.80
2018-12-16T04:02:26.111Z,42.80
2018-12-16T04:02:59.457Z,42.70
2018-12-16T04:03:32.371Z,42.80
2018-12-16T04:04:05.099Z,42.80
2018-12-16T04:04:37.765Z,42.80
2018-12-16T04:05:10.552Z,42.70
2018-12-16T04:05:43.614Z,42.70
2018-12-16T04:06:16.760Z,42.80
2018-12-16T04:06:49.831Z,42.80
2018-12-16T04:07:23.077Z,42.80
2018-12-16T04:07:55.762Z,42.80
2018-12-16T04:08:28.614Z,42.80
2018-12-16T04:09:01.577Z,42.80
2018-12-16T04:09:34.523Z,42.80
2018-12-16T04:10:07.273Z,42.80
2018-12-16T04:10:39.879Z,42.80
2018-12-16T04:11:12.893Z,42.80
2018-12-16T04:11:45.976Z,42.80
2018-12-16T04:12:18.855Z,42.80
2018-12-16T04:12:51.703Z,42.80
2018-12-16T04:13:24.624Z,42.80
2018-12-16T04:13:57.633Z,42.80
2018-12-16T04:14:30.584Z,42.80
2018-12-16T04:15:03.457Z,43.10
2018-12-16T04:15:36.221Z,42.70
2018-12-16T04:16:09.406Z,42.80
2018-12-16T04:16:42.115Z,42.80
2018-12-16T04:17:15.082Z,42.80
2018-12-16T04:17:47.985Z,42.80
2018-12-16T04:18:20.698Z,42.80
2018-12-16T04:18:53.554Z,42.80
2018-12-16T04:19:26.976Z,42.80
2018-12-16T04:19:59.875Z,42.80
2018-12-16T04:20:32.813Z,42.80
2018-12-16T04:21:05.761Z,42.80
2018-12-16T04:21:39.097Z,42.70
2018-12-16T04:22:12.001Z,42.80
2018-12-16T04:22:44.978Z,42.80
2018-12-16T04:23:17.723Z,42.80
2018-12-16T04:23:50.664Z,42.80
2018-12-16T04:24:23.842Z,42.90
2018-12-16T04:24:56.788Z,42.80
2018-12-16T04:25:29.776Z,42.80
2018-12-16T04:26:02.632Z,42.90
2018-12-16T04:26:35.628Z,42.80
2018-12-16T04:27:08.547Z,42.80
2018-12-16T04:27:41.475Z,42.80
2018-12-16T04:28:14.779Z,42.80
2018-12-16T04:28:47.558Z,42.80
2018-12-16T04:29:20.420Z,42.80
2018-12-16T04:29:53.166Z,42.80
2018-12-16T04:30:26.323Z,42.80
2018-12-16T04:30:59.083Z,42.80
2018-12-16T04:31:32.141Z,42.80
2018-12-16T04:32:04.940Z,42.80
2018-12-16T04:32:38.074Z,42.90
2018-12-16T04:33:10.847Z,42.90
2018-12-16T04:33:43.870Z,42.90
2018-12-16T04:34:16.847Z,42.90
2018-12-16T04:34:49.421Z,42.80
2018-12-16T04:35:22.213Z,42.80
2018-12-16T04:35:55.132Z,42.90
2018-12-16T04:36:28.146Z,42.80
2018-12-16T04:37:01.038Z,42.80
2018-12-16T04:37:33.862Z,42.80
2018-12-16T04:38:06.806Z,42.80
2018-12-16T04:38:39.480Z,42.80
2018-12-16T04:39:12.663Z,42.90
2018-12-16T04:39:45.586Z,42.90
2018-12-16T04:40:18.634Z,42.90
2018-12-16T04:40:51.160Z,43.50
2018-12-16T04:41:24.279Z,42.90
2018-12-16T04:41:57.045Z,42.90
2018-12-16T04:42:30.193Z,42.90
2018-12-16T04:43:03.041Z,42.90
2018-12-16T04:43:35.804Z,42.90
2018-12-16T04:44:08.501Z,42.90
2018-12-16T04:44:41.347Z,42.90
2018-12-16T04:45:14.668Z,42.90
2018-12-16T04:45:47.473Z,43.00
2018-12-16T04:46:20.416Z,42.90
2018-12-16T04:46:53.348Z,42.90
2018-12-16T04:47:26.491Z,42.90
2018-12-16T04:47:59.562Z,42.90
2018-12-16T04:48:32.923Z,42.90
2018-12-16T04:49:05.853Z,42.90
2018-12-16T04:49:38.376Z,42.90
2018-12-16T04:50:11.434Z,42.90
2018-12-16T04:50:44.450Z,43.00
2018-12-16T04:51:17.391Z,42.90
2018-12-16T04:51:50.645Z,43.00
2018-12-16T04:52:23.486Z,42.90
2018-12-16T04:52:56.220Z,42.90
2018-12-16T04:53:35.226Z,42.90
2018-12-16T04:54:04.204Z,42.90
2018-12-16T04:54:37.139Z,42.90
2018-12-16T04:55:10.276Z,43.00
2018-12-16T04:55:43.068Z,42.90
2018-12-16T04:56:16.085Z,43.00
2018-12-16T04:56:48.975Z,43.00
2018-12-16T04:57:21.923Z,43.00
2018-12-16T04:57:54.926Z,42.90
2018-12-16T04:58:28.046Z,42.90
2018-12-16T04:59:01.171Z,42.90
2018-12-16T04:59:34.046Z,43.00
2018-12-16T05:00:06.917Z,43.00
2018-12-16T05:00:39.921Z,43.00
2018-12-16T05:01:12.665Z,43.00
2018-12-16T05:01:45.489Z,43.10
2018-12-16T05:02:18.416Z,43.00
2018-12-16T05:02:51.176Z,43.10
2018-12-16T05:03:23.926Z,43.00
2018-12-16T05:03:56.734Z,43.10
2018-12-16T05:04:29.748Z,43.10
2018-12-16T05:05:02.677Z,43.00
2018-12-16T05:05:35.479Z,43.10
2018-12-16T05:06:08.567Z,43.10
2018-12-16T05:06:41.689Z,43.00
2018-12-16T05:07:14.325Z,43.00
2018-12-16T05:07:47.179Z,43.00
2018-12-16T05:08:19.960Z,43.10
2018-12-16T05:08:52.927Z,43.10
2018-12-16T05:09:26.141Z,43.10
2018-12-16T05:09:59.138Z,43.00
2018-12-16T05:10:31.910Z,43.10
2018-12-16T05:11:05.011Z,43.00
2018-12-16T05:11:38.226Z,43.10
2018-12-16T05:12:10.879Z,43.10
2018-12-16T05:12:43.790Z,43.10
2018-12-16T05:13:16.561Z,43.00
2018-12-16T05:13:49.291Z,43.10
2018-12-16T05:15:14.907Z,43.10
2018-12-16T05:15:47.499Z,43.00
2018-12-16T05:16:20.626Z,43.00
2018-12-16T05:16:53.438Z,43.10
2018-12-16T05:17:25.838Z,43.00
2018-12-16T05:17:58.642Z,43.10
2018-12-16T05:18:32.493Z,43.10
2018-12-16T05:19:05.357Z,43.10
2018-12-16T05:19:38.428Z,43.10
2018-12-16T05:20:11.647Z,43.00
2018-12-16T05:20:44.572Z,43.10
2018-12-16T05:21:17.508Z,43.00
2018-12-16T05:21:50.399Z,43.10
2018-12-16T05:22:23.189Z,43.10
2018-12-16T05:22:56.254Z,43.10
2018-12-16T05:23:29.374Z,43.10
2018-12-16T05:24:02.389Z,43.10
2018-12-16T05:24:35.146Z,43.00
2018-12-16T05:25:08.125Z,43.10
2018-12-16T05:25:41.162Z,43.10
2018-12-16T05:26:13.775Z,43.10
2018-12-16T05:26:46.646Z,43.10
2018-12-16T05:27:19.411Z,43.10
2018-12-16T05:27:52.538Z,43.10
2018-12-16T05:28:25.663Z,43.10
2018-12-16T05:28:58.273Z,43.00
2018-12-16T05:29:31.474Z,43.40
2018-12-16T05:30:04.449Z,43.10
2018-12-16T05:30:37.296Z,43.20
2018-12-16T05:31:10.149Z,43.10
2018-12-16T05:31:43.130Z,43.10
2018-12-16T05:32:15.965Z,43.10
2018-12-16T05:32:48.980Z,43.10
2018-12-16T05:33:21.837Z,43.10
2018-12-16T05:33:55.571Z,43.10
2018-12-16T05:34:28.534Z,43.10
2018-12-16T05:35:01.292Z,43.10
2018-12-16T05:35:34.111Z,43.20
2018-12-16T05:36:06.778Z,43.10
2018-12-16T05:36:39.537Z,43.20
2018-12-16T05:37:12.551Z,43.10
2018-12-16T05:37:45.444Z,43.10
2018-12-16T05:38:18.691Z,43.10
2018-12-16T05:38:51.430Z,43.10
2018-12-16T05:39:24.362Z,43.10
2018-12-16T05:39:57.242Z,43.20
2018-12-16T05:40:30.278Z,43.10
2018-12-16T05:41:03.072Z,43.10
2018-12-16T05:41:35.917Z,43.10
2018-12-16T05:42:08.574Z,43.10
2018-12-16T05:42:41.323Z,43.10
2018-12-16T05:43:14.208Z,43.70
2018-12-16T05:43:46.802Z,43.10
2018-12-16T05:44:19.555Z,43.10
2018-12-16T05:44:52.383Z,43.10
2018-12-16T05:45:25.261Z,43.10
2018-12-16T05:45:58.010Z,43.20
2018-12-16T05:46:30.814Z,43.20
2018-12-16T05:47:03.750Z,43.20
2018-12-16T05:47:36.500Z,43.10
2018-12-16T05:48:09.370Z,43.10
2018-12-16T05:48:42.270Z,43.10
2018-12-16T05:49:15.347Z,43.20
2018-12-16T05:49:47.960Z,43.20
2018-12-16T05:50:21.029Z,43.20
2018-12-16T05:50:53.835Z,43.10
2018-12-16T05:51:26.686Z,43.10
2018-12-16T05:51:59.559Z,43.10
2018-12-16T05:52:32.591Z,43.10
2018-12-16T05:53:05.588Z,43.20
2018-12-16T05:53:38.319Z,43.10
2018-12-16T05:54:11.268Z,43.10
2018-12-16T05:54:44.174Z,43.20
2018-12-16T05:55:16.875Z,43.20
2018-12-16T05:55:49.686Z,43.20
2018-12-16T05:56:22.652Z,43.20
2018-12-16T05:56:55.523Z,43.20
2018-12-16T05:57:28.350Z,43.20
2018-12-16T05:58:01.510Z,43.80
2018-12-16T05:58:34.587Z,43.20
2018-12-16T05:59:07.371Z,43.20
2018-12-16T05:59:40.192Z,43.20
2018-12-16T06:00:13.112Z,43.20
2018-12-16T06:00:45.956Z,43.20
2018-12-16T06:01:18.835Z,43.20
2018-12-16T06:01:51.875Z,43.20
2018-12-16T06:02:24.659Z,43.20
2018-12-16T06:02:57.374Z,43.20
2018-12-16T06:03:30.425Z,43.20
2018-12-16T06:04:03.362Z,43.20
2018-12-16T06:04:36.035Z,43.20
2018-12-16T06:05:08.856Z,43.20
2018-12-16T06:05:42.145Z,43.20
2018-12-16T06:06:14.819Z,43.20
2018-12-16T06:06:47.930Z,43.20
2018-12-16T06:07:20.996Z,43.20
2018-12-16T06:07:54.300Z,43.20
2018-12-16T06:08:27.117Z,43.20
2018-12-16T06:09:00.077Z,43.20
2018-12-16T06:09:33.297Z,43.20
2018-12-16T06:10:06.165Z,43.80
2018-12-16T06:10:39.171Z,43.20
2018-12-16T06:11:12.010Z,43.20
2018-12-16T06:11:44.889Z,43.20
2018-12-16T06:12:17.568Z,43.20
2018-12-16T06:12:50.598Z,43.20
2018-12-16T06:13:23.842Z,43.20
2018-12-16T06:13:56.938Z,43.20
2018-12-16T06:14:29.981Z,43.20
2018-12-16T06:15:02.582Z,43.20
2018-12-16T06:15:35.604Z,43.20
2018-12-16T06:16:08.559Z,43.20
2018-12-16T06:16:41.243Z,43.20
2018-12-16T06:17:13.981Z,43.20
2018-12-16T06:17:47.709Z,43.30
2018-12-16T06:18:20.740Z,43.20
2018-12-16T06:18:53.833Z,43.20
2018-12-16T06:19:26.952Z,43.20
2018-12-16T06:19:59.701Z,43.20
2018-12-16T06:20:32.657Z,43.20
2018-12-16T06:21:05.515Z,43.20
2018-12-16T06:21:39.452Z,43.20
2018-12-16T06:22:12.385Z,43.20
2018-12-16T06:22:45.411Z,43.20
2018-12-16T06:23:18.176Z,43.20
2018-12-16T06:23:55.521Z,43.20
2018-12-16T06:24:25.831Z,43.20
2018-12-16T06:24:58.535Z,43.30
2018-12-16T06:25:31.422Z,43.20
2018-12-16T06:26:04.263Z,43.20
2018-12-16T06:26:37.090Z,43.20
2018-12-16T06:27:10.134Z,43.10
2018-12-16T06:27:43.103Z,43.20
2018-12-16T06:28:15.951Z,43.20
2018-12-16T06:28:48.632Z,43.20
2018-12-16T06:29:21.474Z,43.20
2018-12-16T06:29:54.269Z,43.20
2018-12-16T06:30:27.124Z,43.20
2018-12-16T06:31:00.031Z,43.20
2018-12-16T06:31:32.937Z,43.20
2018-12-16T06:32:05.891Z,43.20
2018-12-16T06:32:38.822Z,43.20
2018-12-16T06:33:11.764Z,43.20
2018-12-16T06:33:44.874Z,43.20
2018-12-16T06:34:17.914Z,43.20
2018-12-16T06:34:50.663Z,43.20
2018-12-16T06:35:23.355Z,43.20
2018-12-16T06:35:56.370Z,43.20
2018-12-16T06:36:29.262Z,43.20
2018-12-16T06:37:01.979Z,43.20
2018-12-16T06:37:34.981Z,43.20
2018-12-16T06:38:07.839Z,43.20
2018-12-16T06:38:40.920Z,43.20
2018-12-16T06:39:13.813Z,43.20
2018-12-16T06:39:46.800Z,43.20
2018-12-16T06:40:19.789Z,43.20
2018-12-16T06:40:52.710Z,43.20
2018-12-16T06:41:25.750Z,43.20
2018-12-16T06:41:58.551Z,43.20
2018-12-16T06:42:31.795Z,43.20
2018-12-16T06:43:04.680Z,43.20
2018-12-16T06:43:37.889Z,43.20
2018-12-16T06:44:10.629Z,43.20
2018-12-16T06:44:43.557Z,43.20
2018-12-16T06:45:17.148Z,43.30
2018-12-16T06:45:50.798Z,43.20
2018-12-16T06:46:23.891Z,43.20
2018-12-16T06:46:56.678Z,43.20
2018-12-16T06:47:29.650Z,43.20
2018-12-16T06:48:03.266Z,43.30
2018-12-16T06:48:36.319Z,43.20
2018-12-16T06:49:09.298Z,43.20
2018-12-16T06:49:42.419Z,43.20
2018-12-16T06:50:15.308Z,43.30
2018-12-16T06:50:49.017Z,43.20
2018-12-16T06:51:22.200Z,43.20
2018-12-16T06:51:56.058Z,43.20
2018-12-16T06:52:29.194Z,43.20
2018-12-16T06:53:02.262Z,43.30
2018-12-16T06:53:34.850Z,43.20
2018-12-16T06:54:07.711Z,43.30
2018-12-16T06:54:40.588Z,43.30
2018-12-16T06:55:14.718Z,43.30
2018-12-16T06:55:47.688Z,43.30
2018-12-16T06:56:20.422Z,43.20
2018-12-16T06:56:53.395Z,43.30
2018-12-16T06:57:26.278Z,43.30
2018-12-16T06:57:59.087Z,43.30
2018-12-16T06:58:31.908Z,43.30
2018-12-16T06:59:04.684Z,43.20
2018-12-16T06:59:37.552Z,43.30
2018-12-16T07:00:10.339Z,43.30
2018-12-16T07:00:43.407Z,43.30
2018-12-16T07:01:16.194Z,43.30
2018-12-16T07:01:48.937Z,43.30
2018-12-16T07:02:21.895Z,43.20
2018-12-16T07:02:55.043Z,43.20
2018-12-16T07:03:28.146Z,43.20
2018-12-16T07:04:00.760Z,43.20
2018-12-16T07:04:34.414Z,43.30
2018-12-16T07:05:06.940Z,43.30